sensor_id;sensor_type;location;lat;lon;timestamp;temperature;humidity
75457;SHT31;64036;48.266;14.192;2023-04-25T00:03:03;7.82;73.44
75457;SHT31;64036;48.266;14.192;2023-04-25T00:05:55;7.78;73.36
75457;SHT31;64036;48.266;14.192;2023-04-25T00:08:37;7.74;73.40
75457;SHT31;64036;48.266;14.192;2023-04-25T00:11:20;7.73;73.40
75457;SHT31;64036;48.266;14.192;2023-04-25T00:13:55;7.71;73.51
75457;SHT31;64036;48.266;14.192;2023-04-25T00:16:57;7.69;73.58
75457;SHT31;64036;48.266;14.192;2023-04-25T00:19:44;7.66;73.65
75457;SHT31;64036;48.266;14.192;2023-04-25T00:22:44;7.61;73.70
75457;SHT31;64036;48.266;14.192;2023-04-25T00:25:19;7.59;73.67
75457;SHT31;64036;48.266;14.192;2023-04-25T00:28:11;7.53;73.77
75457;SHT31;64036;48.266;14.192;2023-04-25T00:30:57;7.49;73.81
75457;SHT31;64036;48.266;14.192;2023-04-25T00:33:54;7.45;73.87
75457;SHT31;64036;48.266;14.192;2023-04-25T00:37:09;7.42;73.91
75457;SHT31;64036;48.266;14.192;2023-04-25T00:39:51;7.40;74.05
75457;SHT31;64036;48.266;14.192;2023-04-25T00:42:36;7.38;74.07
75457;SHT31;64036;48.266;14.192;2023-04-25T00:45:10;7.36;74.07
75457;SHT31;64036;48.266;14.192;2023-04-25T00:50:20;7.37;73.96
75457;SHT31;64036;48.266;14.192;2023-04-25T00:53:06;7.36;73.92
75457;SHT31;64036;48.266;14.192;2023-04-25T00:55:46;7.33;73.92
75457;SHT31;64036;48.266;14.192;2023-04-25T00:58:27;7.31;73.93
75457;SHT31;64036;48.266;14.192;2023-04-25T01:01:13;7.29;73.90
75457;SHT31;64036;48.266;14.192;2023-04-25T01:04:04;7.23;74.01
75457;SHT31;64036;48.266;14.192;2023-04-25T01:07:01;7.20;74.14
75457;SHT31;64036;48.266;14.192;2023-04-25T01:09:49;7.17;74.31
75457;SHT31;64036;48.266;14.192;2023-04-25T01:12:30;7.12;74.48
75457;SHT31;64036;48.266;14.192;2023-04-25T01:15:27;7.10;74.63
75457;SHT31;64036;48.266;14.192;2023-04-25T01:18:29;7.09;74.83
75457;SHT31;64036;48.266;14.192;2023-04-25T01:21:17;7.09;75.12
75457;SHT31;64036;48.266;14.192;2023-04-25T01:24:12;7.10;75.33
75457;SHT31;64036;48.266;14.192;2023-04-25T01:27:07;7.10;75.30
75457;SHT31;64036;48.266;14.192;2023-04-25T01:29:36;7.11;75.27
75457;SHT31;64036;48.266;14.192;2023-04-25T01:32:23;7.12;75.30
75457;SHT31;64036;48.266;14.192;2023-04-25T01:35:14;7.10;75.37
75457;SHT31;64036;48.266;14.192;2023-04-25T01:38:06;7.09;75.40
75457;SHT31;64036;48.266;14.192;2023-04-25T01:40:51;7.06;75.45
75457;SHT31;64036;48.266;14.192;2023-04-25T01:43:44;7.05;75.50
75457;SHT31;64036;48.266;14.192;2023-04-25T01:46:36;7.04;75.50
75457;SHT31;64036;48.266;14.192;2023-04-25T01:49:15;7.03;75.55
75457;SHT31;64036;48.266;14.192;2023-04-25T01:51:56;7.03;75.62
75457;SHT31;64036;48.266;14.192;2023-04-25T01:54:33;7.04;75.68
75457;SHT31;64036;48.266;14.192;2023-04-25T01:57:02;7.07;75.77
75457;SHT31;64036;48.266;14.192;2023-04-25T01:59:28;7.11;75.80
75457;SHT31;64036;48.266;14.192;2023-04-25T02:02:03;7.16;75.71
75457;SHT31;64036;48.266;14.192;2023-04-25T02:04:40;7.19;75.63
75457;SHT31;64036;48.266;14.192;2023-04-25T02:10:30;7.25;75.73
75457;SHT31;64036;48.266;14.192;2023-04-25T02:13:02;7.27;75.79
75457;SHT31;64036;48.266;14.192;2023-04-25T02:15:55;7.30;75.69
75457;SHT31;64036;48.266;14.192;2023-04-25T02:18:32;7.33;75.64
75457;SHT31;64036;48.266;14.192;2023-04-25T02:27:00;7.44;75.49
75457;SHT31;64036;48.266;14.192;2023-04-25T02:29:44;7.42;75.55
75457;SHT31;64036;48.266;14.192;2023-04-25T02:32:13;7.39;75.57
75457;SHT31;64036;48.266;14.192;2023-04-25T02:34:46;7.38;75.32
75457;SHT31;64036;48.266;14.192;2023-04-25T02:37:23;7.38;75.14
75457;SHT31;64036;48.266;14.192;2023-04-25T02:42:56;7.31;75.08
75457;SHT31;64036;48.266;14.192;2023-04-25T02:45:50;7.25;75.00
75457;SHT31;64036;48.266;14.192;2023-04-25T02:48:42;7.19;75.00
75457;SHT31;64036;48.266;14.192;2023-04-25T02:51:23;7.13;74.91
75457;SHT31;64036;48.266;14.192;2023-04-25T02:57:12;7.03;74.73
75457;SHT31;64036;48.266;14.192;2023-04-25T03:00:01;6.96;74.80
75457;SHT31;64036;48.266;14.192;2023-04-25T03:08:51;6.76;75.02
75457;SHT31;64036;48.266;14.192;2023-04-25T03:11:36;6.71;75.12
75457;SHT31;64036;48.266;14.192;2023-04-25T03:14:28;6.65;75.26
75457;SHT31;64036;48.266;14.192;2023-04-25T03:23:18;6.49;75.53
75457;SHT31;64036;48.266;14.192;2023-04-25T03:26:17;6.44;75.69
75457;SHT31;64036;48.266;14.192;2023-04-25T03:28:59;6.39;75.72
75457;SHT31;64036;48.266;14.192;2023-04-25T03:31:54;6.35;75.84
75457;SHT31;64036;48.266;14.192;2023-04-25T03:34:31;6.33;75.93
75457;SHT31;64036;48.266;14.192;2023-04-25T03:37:29;6.32;75.99
75457;SHT31;64036;48.266;14.192;2023-04-25T03:40:36;6.31;75.86
75457;SHT31;64036;48.266;14.192;2023-04-25T03:43:11;6.29;75.97
75457;SHT31;64036;48.266;14.192;2023-04-25T03:49:00;6.25;76.35
75457;SHT31;64036;48.266;14.192;2023-04-25T03:52:12;6.24;76.49
75457;SHT31;64036;48.266;14.192;2023-04-25T03:55:05;6.25;76.54
75457;SHT31;64036;48.266;14.192;2023-04-25T03:57:59;6.28;76.51
75457;SHT31;64036;48.266;14.192;2023-04-25T04:00:36;6.30;76.50
75457;SHT31;64036;48.266;14.192;2023-04-25T04:03:15;6.31;76.54
75457;SHT31;64036;48.266;14.192;2023-04-25T04:06:07;6.33;76.50
75457;SHT31;64036;48.266;14.192;2023-04-25T04:09:01;6.34;76.42
75457;SHT31;64036;48.266;14.192;2023-04-25T04:11:53;6.36;76.40
75457;SHT31;64036;48.266;14.192;2023-04-25T04:14:47;6.45;76.37
75457;SHT31;64036;48.266;14.192;2023-04-25T04:17:48;6.94;76.08
75457;SHT31;64036;48.266;14.192;2023-04-25T04:20:20;7.44;75.57
75457;SHT31;64036;48.266;14.192;2023-04-25T04:22:49;7.86;74.99
75457;SHT31;64036;48.266;14.192;2023-04-25T04:25:18;8.29;74.52
75457;SHT31;64036;48.266;14.192;2023-04-25T04:27:49;8.50;74.19
75457;SHT31;64036;48.266;14.192;2023-04-25T04:30:22;8.64;73.95
75457;SHT31;64036;48.266;14.192;2023-04-25T04:32:54;8.73;73.72
75457;SHT31;64036;48.266;14.192;2023-04-25T04:35:24;8.82;73.63
75457;SHT31;64036;48.266;14.192;2023-04-25T04:37:53;8.99;73.31
75457;SHT31;64036;48.266;14.192;2023-04-25T04:40:21;9.17;72.92
75457;SHT31;64036;48.266;14.192;2023-04-25T04:42:47;9.45;72.52
75457;SHT31;64036;48.266;14.192;2023-04-25T04:45:13;9.68;71.96
75457;SHT31;64036;48.266;14.192;2023-04-25T04:47:41;9.90;71.49
75457;SHT31;64036;48.266;14.192;2023-04-25T04:50:07;10.44;71.06
75457;SHT31;64036;48.266;14.192;2023-04-25T04:52:38;10.95;70.13
75457;SHT31;64036;48.266;14.192;2023-04-25T04:55:04;11.20;69.78
75457;SHT31;64036;48.266;14.192;2023-04-25T04:57:31;11.71;69.46
75457;SHT31;64036;48.266;14.192;2023-04-25T04:59:58;11.97;68.77
75457;SHT31;64036;48.266;14.192;2023-04-25T05:02:24;11.78;68.25
75457;SHT31;64036;48.266;14.192;2023-04-25T05:04:50;11.61;67.84
75457;SHT31;64036;48.266;14.192;2023-04-25T05:07:17;11.43;67.74
75457;SHT31;64036;48.266;14.192;2023-04-25T05:09:44;11.62;67.30
75457;SHT31;64036;48.266;14.192;2023-04-25T05:12:10;12.33;67.18
75457;SHT31;64036;48.266;14.192;2023-04-25T05:14:35;13.33;66.35
75457;SHT31;64036;48.266;14.192;2023-04-25T05:17:01;14.28;64.69
75457;SHT31;64036;48.266;14.192;2023-04-25T05:19:30;14.69;63.16
75457;SHT31;64036;48.266;14.192;2023-04-25T05:21:55;14.70;62.57
75457;SHT31;64036;48.266;14.192;2023-04-25T05:24:21;14.62;62.13
75457;SHT31;64036;48.266;14.192;2023-04-25T05:26:46;15.01;60.69
75457;SHT31;64036;48.266;14.192;2023-04-25T05:29:12;15.58;59.74
75457;SHT31;64036;48.266;14.192;2023-04-25T05:31:38;15.95;58.62
75457;SHT31;64036;48.266;14.192;2023-04-25T05:34:03;15.74;59.14
75457;SHT31;64036;48.266;14.192;2023-04-25T05:36:29;15.48;59.13
75457;SHT31;64036;48.266;14.192;2023-04-25T05:38:55;15.05;59.10
75457;SHT31;64036;48.266;14.192;2023-04-25T05:41:21;14.63;58.47
75457;SHT31;64036;48.266;14.192;2023-04-25T05:43:46;14.26;58.78
75457;SHT31;64036;48.266;14.192;2023-04-25T05:46:14;13.91;58.97
75457;SHT31;64036;48.266;14.192;2023-04-25T05:48:42;13.59;59.36
75457;SHT31;64036;48.266;14.192;2023-04-25T05:51:08;13.37;59.70
75457;SHT31;64036;48.266;14.192;2023-04-25T05:53:39;13.22;59.83
75457;SHT31;64036;48.266;14.192;2023-04-25T05:56:05;13.56;59.89
75457;SHT31;64036;48.266;14.192;2023-04-25T05:58:31;13.65;59.62
75457;SHT31;64036;48.266;14.192;2023-04-25T06:00:56;14.01;59.11
75457;SHT31;64036;48.266;14.192;2023-04-25T06:03:22;15.00;57.43
75457;SHT31;64036;48.266;14.192;2023-04-25T06:05:47;16.04;55.29
75457;SHT31;64036;48.266;14.192;2023-04-25T06:08:13;17.02;53.31
75457;SHT31;64036;48.266;14.192;2023-04-25T06:10:38;17.84;51.02
75457;SHT31;64036;48.266;14.192;2023-04-25T06:13:04;18.59;50.04
75457;SHT31;64036;48.266;14.192;2023-04-25T06:15:30;19.48;49.43
75457;SHT31;64036;48.266;14.192;2023-04-25T06:17:58;20.35;47.07
75457;SHT31;64036;48.266;14.192;2023-04-25T06:20:24;21.28;46.54
75457;SHT31;64036;48.266;14.192;2023-04-25T06:22:50;22.21;44.63
75457;SHT31;64036;48.266;14.192;2023-04-25T06:25:19;23.30;42.97
75457;SHT31;64036;48.266;14.192;2023-04-25T06:27:45;24.11;41.18
75457;SHT31;64036;48.266;14.192;2023-04-25T06:30:10;25.04;40.05
75457;SHT31;64036;48.266;14.192;2023-04-25T06:32:40;25.81;38.50
75457;SHT31;64036;48.266;14.192;2023-04-25T06:35:06;26.46;36.70
75457;SHT31;64036;48.266;14.192;2023-04-25T06:37:31;27.07;35.93
75457;SHT31;64036;48.266;14.192;2023-04-25T06:39:57;27.31;34.71
75457;SHT31;64036;48.266;14.192;2023-04-25T06:42:22;27.71;34.23
75457;SHT31;64036;48.266;14.192;2023-04-25T06:44:48;27.82;34.09
75457;SHT31;64036;48.266;14.192;2023-04-25T06:47:14;28.12;33.74
75457;SHT31;64036;48.266;14.192;2023-04-25T06:49:40;28.80;32.44
75457;SHT31;64036;48.266;14.192;2023-04-25T06:52:05;29.41;31.78
75457;SHT31;64036;48.266;14.192;2023-04-25T06:54:32;30.00;31.24
75457;SHT31;64036;48.266;14.192;2023-04-25T06:56:57;30.18;30.73
75457;SHT31;64036;48.266;14.192;2023-04-25T06:59:23;29.44;29.68
75457;SHT31;64036;48.266;14.192;2023-04-25T07:01:48;28.87;30.63
75457;SHT31;64036;48.266;14.192;2023-04-25T07:04:14;29.32;29.99
75457;SHT31;64036;48.266;14.192;2023-04-25T07:06:39;29.31;29.49
75457;SHT31;64036;48.266;14.192;2023-04-25T07:09:10;29.33;29.29
75457;SHT31;64036;48.266;14.192;2023-04-25T07:11:37;29.40;30.06
75457;SHT31;64036;48.266;14.192;2023-04-25T07:14:02;29.54;29.18
75457;SHT31;64036;48.266;14.192;2023-04-25T07:16:28;29.54;29.27
75457;SHT31;64036;48.266;14.192;2023-04-25T07:18:54;28.86;29.40
75457;SHT31;64036;48.266;14.192;2023-04-25T07:21:19;27.59;30.13
75457;SHT31;64036;48.266;14.192;2023-04-25T07:23:45;26.33;31.68
75457;SHT31;64036;48.266;14.192;2023-04-25T07:26:11;25.92;32.42
75457;SHT31;64036;48.266;14.192;2023-04-25T07:28:37;25.39;33.45
75457;SHT31;64036;48.266;14.192;2023-04-25T07:31:02;26.19;33.42
75457;SHT31;64036;48.266;14.192;2023-04-25T07:33:28;27.33;32.60
75457;SHT31;64036;48.266;14.192;2023-04-25T07:35:54;26.73;32.02
75457;SHT31;64036;48.266;14.192;2023-04-25T07:38:20;25.42;32.53
75457;SHT31;64036;48.266;14.192;2023-04-25T07:40:47;24.01;33.80
75457;SHT31;64036;48.266;14.192;2023-04-25T07:43:13;22.95;35.18
75457;SHT31;64036;48.266;14.192;2023-04-25T07:45:42;22.37;36.50
75457;SHT31;64036;48.266;14.192;2023-04-25T07:48:09;21.70;37.36
75457;SHT31;64036;48.266;14.192;2023-04-25T07:50:35;20.76;38.01
75457;SHT31;64036;48.266;14.192;2023-04-25T07:53:00;19.79;39.69
75457;SHT31;64036;48.266;14.192;2023-04-25T07:55:26;19.18;41.68
75457;SHT31;64036;48.266;14.192;2023-04-25T07:57:52;18.85;42.56
75457;SHT31;64036;48.266;14.192;2023-04-25T08:00:17;18.34;43.03
75457;SHT31;64036;48.266;14.192;2023-04-25T08:02:43;18.84;43.16
75457;SHT31;64036;48.266;14.192;2023-04-25T08:05:09;19.56;42.08
75457;SHT31;64036;48.266;14.192;2023-04-25T08:07:37;20.04;41.77
75457;SHT31;64036;48.266;14.192;2023-04-25T08:10:04;21.23;40.31
75457;SHT31;64036;48.266;14.192;2023-04-25T08:12:31;22.56;38.73
75457;SHT31;64036;48.266;14.192;2023-04-25T08:14:57;23.53;36.77
75457;SHT31;64036;48.266;14.192;2023-04-25T08:17:23;24.17;35.01
75457;SHT31;64036;48.266;14.192;2023-04-25T08:19:49;24.80;34.33
75457;SHT31;64036;48.266;14.192;2023-04-25T08:22:14;25.24;33.01
75457;SHT31;64036;48.266;14.192;2023-04-25T08:24:41;25.29;32.71
75457;SHT31;64036;48.266;14.192;2023-04-25T08:27:07;24.92;33.32
75457;SHT31;64036;48.266;14.192;2023-04-25T08:29:33;25.59;33.58
75457;SHT31;64036;48.266;14.192;2023-04-25T08:31:59;25.76;32.72
75457;SHT31;64036;48.266;14.192;2023-04-25T08:34:25;25.63;33.16
75457;SHT31;64036;48.266;14.192;2023-04-25T08:36:51;25.50;31.98
75457;SHT31;64036;48.266;14.192;2023-04-25T08:39:17;24.43;32.98
75457;SHT31;64036;48.266;14.192;2023-04-25T08:41:43;23.84;34.41
75457;SHT31;64036;48.266;14.192;2023-04-25T08:44:12;23.39;34.97
75457;SHT31;64036;48.266;14.192;2023-04-25T08:46:38;22.58;35.60
75457;SHT31;64036;48.266;14.192;2023-04-25T08:49:08;21.80;36.40
75457;SHT31;64036;48.266;14.192;2023-04-25T08:51:34;21.25;37.31
75457;SHT31;64036;48.266;14.192;2023-04-25T08:54:12;20.45;38.63
75457;SHT31;64036;48.266;14.192;2023-04-25T08:56:40;19.89;39.90
75457;SHT31;64036;48.266;14.192;2023-04-25T08:59:09;19.39;40.70
75457;SHT31;64036;48.266;14.192;2023-04-25T09:01:36;19.80;40.88
75457;SHT31;64036;48.266;14.192;2023-04-25T09:04:02;21.04;39.82
75457;SHT31;64036;48.266;14.192;2023-04-25T09:06:28;22.02;38.42
75457;SHT31;64036;48.266;14.192;2023-04-25T09:09:02;23.05;37.41
75457;SHT31;64036;48.266;14.192;2023-04-25T09:11:33;23.37;36.00
75457;SHT31;64036;48.266;14.192;2023-04-25T09:14:14;23.62;35.96
75457;SHT31;64036;48.266;14.192;2023-04-25T09:16:57;24.10;35.22
75457;SHT31;64036;48.266;14.192;2023-04-25T09:19:25;24.72;34.52
75457;SHT31;64036;48.266;14.192;2023-04-25T09:22:00;25.03;33.96
75457;SHT31;64036;48.266;14.192;2023-04-25T09:27:18;25.44;33.89
75457;SHT31;64036;48.266;14.192;2023-04-25T09:29:47;25.78;32.55
75457;SHT31;64036;48.266;14.192;2023-04-25T09:34:55;26.57;32.67
75457;SHT31;64036;48.266;14.192;2023-04-25T09:37:23;26.20;33.20
75457;SHT31;64036;48.266;14.192;2023-04-25T09:39:56;25.07;32.60
75457;SHT31;64036;48.266;14.192;2023-04-25T09:42:25;24.01;33.97
75457;SHT31;64036;48.266;14.192;2023-04-25T09:44:54;23.96;34.27
75457;SHT31;64036;48.266;14.192;2023-04-25T09:47:22;24.28;33.32
75457;SHT31;64036;48.266;14.192;2023-04-25T09:49:50;24.69;33.86
75457;SHT31;64036;48.266;14.192;2023-04-25T09:52:17;25.29;32.12
75457;SHT31;64036;48.266;14.192;2023-04-25T09:54:45;25.34;31.90
75457;SHT31;64036;48.266;14.192;2023-04-25T09:57:14;25.43;31.49
75457;SHT31;64036;48.266;14.192;2023-04-25T10:02:19;25.60;32.42
75457;SHT31;64036;48.266;14.192;2023-04-25T10:04:51;25.74;31.39
75457;SHT31;64036;48.266;14.192;2023-04-25T10:07:20;25.43;31.07
75457;SHT31;64036;48.266;14.192;2023-04-25T10:09:53;25.29;32.27
75457;SHT31;64036;48.266;14.192;2023-04-25T10:12:26;25.11;32.17
75457;SHT31;64036;48.266;14.192;2023-04-25T10:14:52;24.60;32.60
75457;SHT31;64036;48.266;14.192;2023-04-25T10:17:18;23.95;32.50
75457;SHT31;64036;48.266;14.192;2023-04-25T10:19:46;23.03;34.00
75457;SHT31;64036;48.266;14.192;2023-04-25T10:24:46;20.91;36.63
75457;SHT31;64036;48.266;14.192;2023-04-25T10:27:12;20.20;37.48
75457;SHT31;64036;48.266;14.192;2023-04-25T10:29:38;19.59;38.24
75457;SHT31;64036;48.266;14.192;2023-04-25T10:32:04;19.03;40.21
75457;SHT31;64036;48.266;14.192;2023-04-25T10:34:43;18.70;41.22
75457;SHT31;64036;48.266;14.192;2023-04-25T10:37:12;18.56;42.02
75457;SHT31;64036;48.266;14.192;2023-04-25T10:39:41;18.40;42.32
75457;SHT31;64036;48.266;14.192;2023-04-25T10:42:08;18.20;42.35
75457;SHT31;64036;48.266;14.192;2023-04-25T10:44:34;18.03;42.95
75457;SHT31;64036;48.266;14.192;2023-04-25T10:47:00;17.86;43.24
75457;SHT31;64036;48.266;14.192;2023-04-25T10:49:32;17.64;43.61
75457;SHT31;64036;48.266;14.192;2023-04-25T10:54:56;17.03;43.36
75457;SHT31;64036;48.266;14.192;2023-04-25T11:00:21;15.60;46.51
75457;SHT31;64036;48.266;14.192;2023-04-25T11:02:52;15.15;47.48
75457;SHT31;64036;48.266;14.192;2023-04-25T11:08:00;14.27;50.07
75457;SHT31;64036;48.266;14.192;2023-04-25T11:10:26;14.06;51.24
75457;SHT31;64036;48.266;14.192;2023-04-25T11:12:57;13.95;52.67
75457;SHT31;64036;48.266;14.192;2023-04-25T11:15:24;13.87;54.15
75457;SHT31;64036;48.266;14.192;2023-04-25T11:17:51;13.77;55.35
75457;SHT31;64036;48.266;14.192;2023-04-25T11:20:20;13.75;55.99
75457;SHT31;64036;48.266;14.192;2023-04-25T11:22:47;13.84;56.08
75457;SHT31;64036;48.266;14.192;2023-04-25T11:25:16;14.07;56.32
75457;SHT31;64036;48.266;14.192;2023-04-25T11:27:51;14.32;55.55
75457;SHT31;64036;48.266;14.192;2023-04-25T11:30:19;14.66;55.05
75457;SHT31;64036;48.266;14.192;2023-04-25T11:32:46;15.43;55.75
75457;SHT31;64036;48.266;14.192;2023-04-25T11:35:12;16.11;53.52
75457;SHT31;64036;48.266;14.192;2023-04-25T11:37:39;16.67;52.72
75457;SHT31;64036;48.266;14.192;2023-04-25T11:40:06;17.19;50.99
75457;SHT31;64036;48.266;14.192;2023-04-25T11:42:36;17.54;50.14
75457;SHT31;64036;48.266;14.192;2023-04-25T11:45:09;17.73;47.98
75457;SHT31;64036;48.266;14.192;2023-04-25T11:47:36;17.84;48.00
75457;SHT31;64036;48.266;14.192;2023-04-25T11:50:03;18.01;47.26
75457;SHT31;64036;48.266;14.192;2023-04-25T11:52:38;18.21;46.32
75457;SHT31;64036;48.266;14.192;2023-04-25T11:55:18;18.43;45.84
75457;SHT31;64036;48.266;14.192;2023-04-25T11:57:46;18.37;45.22
75457;SHT31;64036;48.266;14.192;2023-04-25T12:00:16;18.39;45.80
75457;SHT31;64036;48.266;14.192;2023-04-25T12:02:44;18.48;45.54
75457;SHT31;64036;48.266;14.192;2023-04-25T12:05:13;18.58;45.73
75457;SHT31;64036;48.266;14.192;2023-04-25T12:07:43;18.70;45.84
75457;SHT31;64036;48.266;14.192;2023-04-25T12:12:37;18.79;44.88
75457;SHT31;64036;48.266;14.192;2023-04-25T12:17:47;18.97;44.64
75457;SHT31;64036;48.266;14.192;2023-04-25T12:20:16;18.72;44.34
75457;SHT31;64036;48.266;14.192;2023-04-25T12:22:46;18.48;44.28
75457;SHT31;64036;48.266;14.192;2023-04-25T12:25:20;18.19;45.14
75457;SHT31;64036;48.266;14.192;2023-04-25T12:28:16;18.13;45.52
75457;SHT31;64036;48.266;14.192;2023-04-25T12:33:19;18.23;45.23
75457;SHT31;64036;48.266;14.192;2023-04-25T12:35:46;17.90;44.54
75457;SHT31;64036;48.266;14.192;2023-04-25T12:38:20;16.91;45.60
75457;SHT31;64036;48.266;14.192;2023-04-25T12:40:49;16.00;48.28
75457;SHT31;64036;48.266;14.192;2023-04-25T12:43:15;15.18;51.90
75457;SHT31;64036;48.266;14.192;2023-04-25T12:45:40;14.57;53.31
75457;SHT31;64036;48.266;14.192;2023-04-25T12:48:06;14.10;54.66
75457;SHT31;64036;48.266;14.192;2023-04-25T12:50:32;13.86;56.40
75457;SHT31;64036;48.266;14.192;2023-04-25T12:52:57;13.88;57.43
75457;SHT31;64036;48.266;14.192;2023-04-25T12:55:23;14.08;57.52
75457;SHT31;64036;48.266;14.192;2023-04-25T12:57:48;14.37;57.72
75457;SHT31;64036;48.266;14.192;2023-04-25T13:00:14;14.66;57.83
75457;SHT31;64036;48.266;14.192;2023-04-25T13:02:43;15.06;58.46
75457;SHT31;64036;48.266;14.192;2023-04-25T13:05:08;15.61;58.70
75457;SHT31;64036;48.266;14.192;2023-04-25T13:07:37;16.01;57.43
75457;SHT31;64036;48.266;14.192;2023-04-25T13:10:03;16.43;56.88
75457;SHT31;64036;48.266;14.192;2023-04-25T13:12:30;16.90;55.25
75457;SHT31;64036;48.266;14.192;2023-04-25T13:14:56;17.20;51.68
75457;SHT31;64036;48.266;14.192;2023-04-25T13:17:22;17.39;50.97
75457;SHT31;64036;48.266;14.192;2023-04-25T13:19:48;17.30;49.33
75457;SHT31;64036;48.266;14.192;2023-04-25T13:22:13;17.05;48.37
75457;SHT31;64036;48.266;14.192;2023-04-25T13:24:41;16.98;49.72
75457;SHT31;64036;48.266;14.192;2023-04-25T13:27:08;16.93;49.78
75457;SHT31;64036;48.266;14.192;2023-04-25T13:29:34;16.82;49.00
75457;SHT31;64036;48.266;14.192;2023-04-25T13:32:00;16.64;49.88
75457;SHT31;64036;48.266;14.192;2023-04-25T13:34:27;16.51;49.73
75457;SHT31;64036;48.266;14.192;2023-04-25T13:36:54;16.18;50.39
75457;SHT31;64036;48.266;14.192;2023-04-25T13:39:20;15.81;50.73
75457;SHT31;64036;48.266;14.192;2023-04-25T13:41:46;15.53;51.81
75457;SHT31;64036;48.266;14.192;2023-04-25T13:44:11;15.42;52.89
75457;SHT31;64036;48.266;14.192;2023-04-25T13:46:37;15.41;53.75
75457;SHT31;64036;48.266;14.192;2023-04-25T13:49:03;15.27;51.85
75457;SHT31;64036;48.266;14.192;2023-04-25T13:51:29;14.92;51.81
75457;SHT31;64036;48.266;14.192;2023-04-25T13:53:58;14.56;52.77
75457;SHT31;64036;48.266;14.192;2023-04-25T13:56:26;14.16;53.87
75457;SHT31;64036;48.266;14.192;2023-04-25T13:58:51;13.87;55.18
75457;SHT31;64036;48.266;14.192;2023-04-25T14:01:17;13.68;55.47
75457;SHT31;64036;48.266;14.192;2023-04-25T14:03:44;13.66;56.17
75457;SHT31;64036;48.266;14.192;2023-04-25T14:06:10;13.79;56.49
75457;SHT31;64036;48.266;14.192;2023-04-25T14:08:42;13.94;56.35
75457;SHT31;64036;48.266;14.192;2023-04-25T14:11:07;14.08;55.58
75457;SHT31;64036;48.266;14.192;2023-04-25T14:13:33;14.23;55.43
75457;SHT31;64036;48.266;14.192;2023-04-25T14:15:58;14.37;54.73
75457;SHT31;64036;48.266;14.192;2023-04-25T14:18:24;14.49;54.75
75457;SHT31;64036;48.266;14.192;2023-04-25T14:20:50;14.49;53.11
75457;SHT31;64036;48.266;14.192;2023-04-25T14:23:19;14.44;53.51
75457;SHT31;64036;48.266;14.192;2023-04-25T14:25:44;14.44;53.22
75457;SHT31;64036;48.266;14.192;2023-04-25T14:28:10;14.32;53.11
75457;SHT31;64036;48.266;14.192;2023-04-25T14:30:36;14.17;53.34
75457;SHT31;64036;48.266;14.192;2023-04-25T14:33:02;13.99;53.50
75457;SHT31;64036;48.266;14.192;2023-04-25T14:35:27;13.83;53.91
75457;SHT31;64036;48.266;14.192;2023-04-25T14:37:53;13.77;54.52
75457;SHT31;64036;48.266;14.192;2023-04-25T14:40:19;13.72;54.77
75457;SHT31;64036;48.266;14.192;2023-04-25T14:42:48;13.66;54.22
75457;SHT31;64036;48.266;14.192;2023-04-25T14:45:14;13.62;54.68
75457;SHT31;64036;48.266;14.192;2023-04-25T14:47:40;13.60;55.01
75457;SHT31;64036;48.266;14.192;2023-04-25T14:50:06;13.62;55.18
75457;SHT31;64036;48.266;14.192;2023-04-25T14:52:36;13.64;55.48
75457;SHT31;64036;48.266;14.192;2023-04-25T14:55:04;13.70;55.62
75457;SHT31;64036;48.266;14.192;2023-04-25T14:57:33;13.81;55.83
75457;SHT31;64036;48.266;14.192;2023-04-25T15:00:00;13.95;56.06
75457;SHT31;64036;48.266;14.192;2023-04-25T15:02:27;14.07;56.22
75457;SHT31;64036;48.266;14.192;2023-04-25T15:04:53;14.18;55.84
75457;SHT31;64036;48.266;14.192;2023-04-25T15:07:20;14.18;54.86
75457;SHT31;64036;48.266;14.192;2023-04-25T15:09:50;14.13;54.73
75457;SHT31;64036;48.266;14.192;2023-04-25T15:12:18;14.16;54.20
75457;SHT31;64036;48.266;14.192;2023-04-25T15:14:44;14.16;54.44
75457;SHT31;64036;48.266;14.192;2023-04-25T15:17:10;14.14;54.44
75457;SHT31;64036;48.266;14.192;2023-04-25T15:19:39;14.12;54.80
75457;SHT31;64036;48.266;14.192;2023-04-25T15:22:05;14.07;54.69
75457;SHT31;64036;48.266;14.192;2023-04-25T15:24:31;14.03;54.82
75457;SHT31;64036;48.266;14.192;2023-04-25T15:26:58;13.90;54.23
75457;SHT31;64036;48.266;14.192;2023-04-25T15:29:26;13.77;54.16
75457;SHT31;64036;48.266;14.192;2023-04-25T15:31:53;13.69;54.80
75457;SHT31;64036;48.266;14.192;2023-04-25T15:34:19;13.60;54.55
75457;SHT31;64036;48.266;14.192;2023-04-25T15:36:45;13.50;54.65
75457;SHT31;64036;48.266;14.192;2023-04-25T15:39:13;13.43;55.11
75457;SHT31;64036;48.266;14.192;2023-04-25T15:41:44;13.37;55.38
75457;SHT31;64036;48.266;14.192;2023-04-25T15:44:11;13.39;55.54
75457;SHT31;64036;48.266;14.192;2023-04-25T15:46:37;13.39;55.96
75457;SHT31;64036;48.266;14.192;2023-04-25T15:49:03;13.36;55.88
75457;SHT31;64036;48.266;14.192;2023-04-25T15:51:29;13.37;55.99
75457;SHT31;64036;48.266;14.192;2023-04-25T15:53:58;13.30;56.29
75457;SHT31;64036;48.266;14.192;2023-04-25T15:56:24;13.21;56.43
75457;SHT31;64036;48.266;14.192;2023-04-25T15:58:49;13.11;57.08
75457;SHT31;64036;48.266;14.192;2023-04-25T16:01:15;12.98;57.44
75457;SHT31;64036;48.266;14.192;2023-04-25T16:03:41;12.78;58.24
75457;SHT31;64036;48.266;14.192;2023-04-25T16:06:07;12.61;58.52
75457;SHT31;64036;48.266;14.192;2023-04-25T16:08:32;12.51;58.79
75457;SHT31;64036;48.266;14.192;2023-04-25T16:10:59;12.39;59.36
75457;SHT31;64036;48.266;14.192;2023-04-25T16:13:27;12.33;59.76
75457;SHT31;64036;48.266;14.192;2023-04-25T16:15:54;12.30;59.19
75457;SHT31;64036;48.266;14.192;2023-04-25T16:18:24;12.21;58.69
75457;SHT31;64036;48.266;14.192;2023-04-25T16:20:54;12.17;59.36
75457;SHT31;64036;48.266;14.192;2023-04-25T16:23:25;12.18;60.64
75457;SHT31;64036;48.266;14.192;2023-04-25T16:25:51;12.21;60.65
75457;SHT31;64036;48.266;14.192;2023-04-25T16:28:19;12.25;61.02
75457;SHT31;64036;48.266;14.192;2023-04-25T16:30:44;12.24;61.49
75457;SHT31;64036;48.266;14.192;2023-04-25T16:33:10;12.18;61.70
75457;SHT31;64036;48.266;14.192;2023-04-25T16:35:36;12.11;61.76
75457;SHT31;64036;48.266;14.192;2023-04-25T16:38:07;12.05;61.84
75457;SHT31;64036;48.266;14.192;2023-04-25T16:40:33;11.99;62.02
75457;SHT31;64036;48.266;14.192;2023-04-25T16:42:59;11.97;62.31
75457;SHT31;64036;48.266;14.192;2023-04-25T16:45:25;11.92;62.32
75457;SHT31;64036;48.266;14.192;2023-04-25T16:47:53;11.88;62.38